Time;durP1;ratioP1;P1;durP2;ratioP2;P2;SDS_P1;SDS_P2;PMS_P1;PMS_P2;Temp;Humidity;BMP_temperature;BMP_pressure;BME280_temperature;BME280_humidity;BME280_pressure;Samples;Min_cycle;Max_cycle;Signal;HPM_P1;HPM_P2
2021/03/19 00:01:29;;;;;;;;;;;2.60;72.50;;;;;;5071737;28;20090;-67
2021/03/19 00:03:55;;;;;;;8.38;3.72;;;2.50;72.80;;;;;;5071302;28;19915;-67
2021/03/19 00:06:21;;;;;;;;;;;2.50;73.00;;;;;;5071472;28;20063;-67
2021/03/19 00:08:46;;;;;;;9.88;4.80;;;2.50;73.00;;;;;;5071307;28;19908;-67
2021/03/19 00:11:12;;;;;;;;;;;2.50;73.00;;;;;;5071426;28;20025;-67
2021/03/19 00:13:38;;;;;;;8.63;4.55;;;2.50;73.20;;;;;;5071159;28;20336;-66
2021/03/19 00:16:04;;;;;;;;;;;2.40;73.10;;;;;;5071423;28;20040;-66
2021/03/19 00:18:29;;;;;;;9.32;3.70;;;2.40;73.20;;;;;;5070833;28;19908;-67
2021/03/19 00:20:55;;;;;;;;;;;2.40;73.40;;;;;;5071527;28;20075;-67
2021/03/19 00:23:21;;;;;;;7.32;4.30;;;2.40;73.40;;;;;;5071180;28;20391;-67
2021/03/19 00:25:46;;;;;;;;;;;2.40;73.60;;;;;;5071432;28;20868;-67
2021/03/19 00:28:15;;;;;;;11.85;4.55;;;2.40;73.60;;;;;;5070949;28;20394;-67
2021/03/19 00:30:43;;;;;;;11.70;4.85;;;2.40;73.30;;;;;;5069433;28;20166;-67
2021/03/19 00:33:09;;;;;;;9.70;3.78;;;2.30;73.10;;;;;;5070643;28;20025;-65
2021/03/19 00:35:35;;;;;;;6.82;3.25;;;2.30;72.90;;;;;;5070912;28;20520;-67
2021/03/19 00:38:01;;;;;;;;;;;2.30;73.10;;;;;;5071023;28;20032;-67
2021/03/19 00:40:27;;;;;;;8.00;3.35;;;2.20;72.90;;;;;;5070560;28;19920;-67
2021/03/19 00:42:53;;;;;;;10.10;3.92;;;2.10;73.10;;;;;;5070584;28;20039;-67
2021/03/19 00:45:18;;;;;;;;;;;2.00;73.30;;;;;;5070662;28;20036;-67
2021/03/19 00:47:44;;;;;;;12.82;4.18;;;1.90;73.70;;;;;;5068460;28;19908;-68
2021/03/19 00:50:11;;;;;;;;;;;1.80;73.90;;;;;;5070878;28;20024;-67
2021/03/19 00:52:37;;;;;;;6.63;3.45;;;1.70;73.50;;;;;;5069452;28;19908;-67
2021/03/19 00:55:05;;;;;;;6.70;3.72;;;1.60;73.60;;;;;;5068818;28;20045;-66
2021/03/19 00:57:31;;;;;;;5.90;2.92;;;1.50;73.80;;;;;;5068949;28;20028;-67
2021/03/19 00:59:56;;;;;;;;;;;1.40;74.20;;;;;;5070617;28;20044;-68
2021/03/19 01:02:22;;;;;;;9.95;4.35;;;1.30;74.20;;;;;;5070154;28;20286;-67
2021/03/19 01:04:48;;;;;;;;;;;1.30;73.90;;;;;;5070710;28;20042;-66
2021/03/19 01:07:13;;;;;;;9.32;4.10;;;1.20;73.80;;;;;;5069990;28;19908;-67
2021/03/19 01:09:39;;;;;;;;;;;1.20;73.80;;;;;;5070618;28;20029;-67
2021/03/19 01:12:05;;;;;;;34.92;12.32;;;1.10;73.90;;;;;;5070163;28;19951;-67
2021/03/19 01:14:30;;;;;;;;;;;1.00;74.10;;;;;;5070497;28;20029;-67
2021/03/19 01:16:56;;;;;;;20.73;7.78;;;0.90;73.90;;;;;;5069844;28;20683;-68
2021/03/19 01:19:21;;;;;;;;;;;0.90;73.70;;;;;;5070248;28;20020;-68
2021/03/19 01:21:47;;;;;;;20.17;7.70;;;0.90;73.80;;;;;;5069748;28;19915;-67
2021/03/19 01:24:13;;;;;;;;;;;0.80;73.30;;;;;;5070477;28;20536;-67
2021/03/19 01:26:38;;;;;;;11.73;5.30;;;0.90;72.80;;;;;;5069797;28;19904;-67
2021/03/19 01:29:06;;;;;;;;;;;0.90;71.70;;;;;;5070004;28;20025;-67
2021/03/19 01:31:32;;;;;;;12.50;6.30;;;0.90;71.30;;;;;;5069734;28;19904;-67
2021/03/19 01:33:58;;;;;;;;;;;0.90;70.90;;;;;;5070042;28;20469;-67
2021/03/19 01:36:24;;;;;;;11.57;4.90;;;0.80;69.80;;;;;;5069550;28;19905;-67
2021/03/19 01:38:49;;;;;;;;;;;0.80;69.80;;;;;;5070023;28;20120;-67
2021/03/19 01:41:15;;;;;;;23.95;10.23;;;0.80;69.00;;;;;;5069088;28;19916;-66
2021/03/19 01:44:00;;;;;;;14.48;7.32;;;0.70;69.20;;;;;;5069296;28;20033;-66
2021/03/19 01:47:03;;;;;;;11.57;6.13;;;0.70;68.20;;;;;;5069266;28;20021;-67
2021/03/19 01:50:06;;;;;;;12.30;5.78;;;0.70;68.10;;;;;;5069312;28;20058;-67
2021/03/19 01:53:09;;;;;;;14.15;5.63;;;0.60;68.80;;;;;;5069293;28;20564;-66
2021/03/19 01:56:12;;;;;;;13.15;6.55;;;0.60;67.70;;;;;;5069172;28;20063;-67
2021/03/19 01:59:15;;;;;;;25.25;12.18;;;0.60;68.00;;;;;;5068178;28;20040;-66
2021/03/19 02:02:18;;;;;;;15.57;7.47;;;0.50;68.40;;;;;;5068979;28;20165;-66
2021/03/19 02:05:21;;;;;;;13.35;6.75;;;0.40;67.10;;;;;;5069078;28;20032;-67
2021/03/19 02:08:23;;;;;;;11.63;5.57;;;0.40;66.90;;;;;;5068961;28;20043;-67
2021/03/19 02:11:27;;;;;;;13.85;6.13;;;0.40;66.00;;;;;;5067629;28;20557;-67
2021/03/19 02:14:30;;;;;;;9.13;5.28;;;0.40;65.20;;;;;;5068713;28;20488;-67
2021/03/19 02:17:33;;;;;;;11.27;5.43;;;0.40;64.50;;;;;;5068714;28;20029;-67
2021/03/19 02:20:36;;;;;;;13.05;5.05;;;0.70;59.70;;;;;;5068742;28;20061;-67
2021/03/19 02:23:39;;;;;;;12.18;4.80;;;1.00;56.90;;;;;;5067096;28;20094;-67
2021/03/19 02:26:42;;;;;;;11.82;5.57;;;1.20;57.80;;;;;;5067344;28;20044;-68
2021/03/19 02:29:47;;;;;;;16.20;7.10;;;1.20;59.20;;;;;;5067389;28;20039;-67
2021/03/19 02:32:15;;;;;;;13.82;6.55;;;1.10;61.10;;;;;;5068599;28;20500;-67
2021/03/19 02:34:53;;;;;;;13.43;6.70;;;1.10;62.10;;;;;;5068514;28;20111;-67
2021/03/19 02:37:47;;;;;;;16.55;7.28;;;1.00;63.30;;;;;;5066917;28;20403;-67
2021/03/19 02:40:16;;;;;;;14.13;6.70;;;1.00;63.90;;;;;;5065182;28;20049;-66
2021/03/19 02:42:41;;;;;;;18.00;8.75;;;0.90;64.60;;;;;;5068456;28;20507;-67
2021/03/19 02:45:09;;;;;;;;;;;0.90;64.70;;;;;;5068855;28;20564;-67
2021/03/19 02:47:35;;;;;;;18.17;8.43;;;0.90;64.90;;;;;;5068493;28;19909;-67
2021/03/19 02:50:00;;;;;;;;;;;0.90;64.90;;;;;;5068899;28;20028;-67
2021/03/19 02:52:31;;;;;;;12.65;5.82;;;0.90;64.50;;;;;;5068411;28;20357;-67
2021/03/19 02:54:57;;;;;;;12.07;5.80;;;1.00;64.30;;;;;;5068220;28;20107;-67
2021/03/19 02:57:23;;;;;;;;;;;1.00;64.00;;;;;;5068810;28;20132;-66
2021/03/19 02:59:48;;;;;;;13.38;6.32;;;1.00;64.40;;;;;;5068288;28;19986;-67
2021/03/19 03:02:14;;;;;;;;;;;1.10;64.40;;;;;;5068701;28;20075;-67
2021/03/19 03:04:39;;;;;;;17.48;6.63;;;1.10;64.80;;;;;;5068185;28;20324;-67
2021/03/19 03:07:05;;;;;;;;;;;1.10;64.40;;;;;;5068411;28;20032;-67
2021/03/19 03:09:33;;;;;;;14.68;6.65;;;1.10;63.50;;;;;;5069594;28;19909;-67
2021/03/19 03:11:59;;;;;;;13.20;5.53;;;1.10;63.50;;;;;;5072314;28;20107;-66
2021/03/19 03:14:28;;;;;;;;;;;1.10;64.10;;;;;;5071467;28;20118;-67
2021/03/19 03:16:58;;;;;;;9.43;4.70;;;1.20;63.90;;;;;;5072305;28;19904;-66
2021/03/19 03:19:24;;;;;;;13.38;5.32;;;1.20;63.80;;;;;;5072173;28;20028;-66
2021/03/19 03:21:51;;;;;;;;;;;1.20;63.90;;;;;;5072458;28;20056;-66
2021/03/19 03:24:19;;;;;;;11.35;5.53;;;1.20;64.00;;;;;;5070736;28;19908;-67
2021/03/19 03:26:44;;;;;;;12.00;6.25;;;1.20;64.70;;;;;;5070790;28;20071;-67
2021/03/19 03:29:12;;;;;;;;;;;1.20;65.20;;;;;;5072305;28;20040;-67
2021/03/19 03:31:39;;;;;;;10.63;4.53;;;1.20;64.40;;;;;;5072170;28;19986;-67
2021/03/19 03:34:05;;;;;;;10.73;5.18;;;1.20;64.30;;;;;;5071866;28;20025;-67
2021/03/19 03:36:30;;;;;;;11.20;5.78;;;1.20;64.30;;;;;;5071846;28;20040;-68
2021/03/19 03:38:56;;;;;;;;;;;1.20;64.30;;;;;;5072371;28;20535;-67
2021/03/19 03:41:26;;;;;;;10.40;5.65;;;1.20;64.80;;;;;;5071484;28;19920;-67
2021/03/19 03:43:52;;;;;;;11.13;5.25;;;1.20;65.00;;;;;;5071705;28;20400;-67
2021/03/19 03:46:21;;;;;;;12.10;5.35;;;1.20;65.40;;;;;;5071736;28;20556;-66
2021/03/19 03:48:47;;;;;;;12.15;5.47;;;1.20;64.80;;;;;;5071597;28;20024;-68
2021/03/19 03:51:13;;;;;;;21.27;5.93;;;1.20;64.20;;;;;;5071485;28;20035;-67
2021/03/19 03:53:40;;;;;;;;;;;1.20;64.70;;;;;;5071937;28;20032;-65
2021/03/19 03:56:11;;;;;;;15.85;7.78;;;1.20;65.10;;;;;;5071434;28;19923;-67
2021/03/19 03:58:37;;;;;;;20.40;10.40;;;1.20;65.30;;;;;;5071511;28;20437;-67
2021/03/19 04:01:04;;;;;;;17.88;8.90;;;1.20;65.30;;;;;;5071133;28;20495;-66
2021/03/19 04:03:30;;;;;;;15.15;9.07;;;1.10;65.40;;;;;;5071381;28;20080;-67
2021/03/19 04:05:56;;;;;;;;;;;1.00;65.80;;;;;;5071707;28;20492;-67
2021/03/19 04:08:27;;;;;;;28.73;12.98;;;1.00;66.10;;;;;;5071170;28;19974;-66
2021/03/19 04:10:55;;;;;;;24.73;11.45;;;1.00;66.10;;;;;;5069935;28;20028;-67
2021/03/19 04:13:22;;;;;;;29.92;12.68;;;1.00;66.30;;;;;;5070919;28;20496;-67
2021/03/19 04:15:50;;;;;;;27.77;10.77;;;1.00;66.20;;;;;;5071071;28;20112;-66
2021/03/19 04:18:17;;;;;;;17.83;10.00;;;0.90;66.00;;;;;;5071232;28;20838;-67
2021/03/19 04:20:45;;;;;;;17.30;8.88;;;0.90;66.10;;;;;;5070002;28;20025;-67
2021/03/19 04:23:11;;;;;;;16.15;8.48;;;0.80;66.20;;;;;;5070939;28;20044;-66
2021/03/19 04:25:37;;;;;;;19.23;7.82;;;0.80;66.30;;;;;;5071027;28;20028;-68
2021/03/19 04:28:06;;;;;;;;;;;0.80;66.30;;;;;;5070010;28;20028;-67
2021/03/19 04:30:40;;;;;;;13.82;7.47;;;0.80;66.40;;;;;;5070858;28;19916;-67
2021/03/19 04:33:07;;;;;;;18.48;8.27;;;0.80;66.40;;;;;;5070692;28;20033;-67
2021/03/19 04:35:34;;;;;;;17.67;8.88;;;0.80;66.60;;;;;;5070852;28;20031;-67
2021/03/19 04:38:04;;;;;;;34.65;13.50;;;0.80;66.40;;;;;;5070578;28;20037;-67
2021/03/19 04:40:30;;;;;;;38.65;15.07;;;0.90;66.40;;;;;;5070487;28;20048;-67
2021/03/19 04:42:57;;;;;;;41.45;15.63;;;1.00;65.70;;;;;;5070458;28;20800;-67
2021/03/19 04:45:24;;;;;;;32.38;13.55;;;1.10;65.70;;;;;;5069309;28;20143;-66
2021/03/19 04:47:52;;;;;;;19.42;9.00;;;1.20;65.00;;;;;;5070387;28;20024;-67
2021/03/19 04:50:18;;;;;;;22.15;10.50;;;1.30;63.90;;;;;;5070460;28;20035;-66
2021/03/19 04:52:44;;;;;;;65.75;28.42;;;1.40;64.10;;;;;;5070542;28;20032;-68
2021/03/19 04:55:10;;;;;;;;;;;1.40;63.40;;;;;;5070925;28;20028;-67
2021/03/19 04:57:36;;;;;;;63.30;26.38;;;1.50;62.90;;;;;;5070489;28;20015;-67
2021/03/19 05:00:08;;;;;;;101.10;41.30;;;1.60;62.80;;;;;;5070286;28;20037;-67
2021/03/19 05:02:36;;;;;;;60.33;26.35;;;1.60;62.70;;;;;;5070162;28;20562;-67
2021/03/19 05:05:04;;;;;;;41.92;18.58;;;1.70;61.90;;;;;;5070090;28;20154;-67
2021/03/19 05:07:29;;;;;;;38.22;18.52;;;1.70;61.90;;;;;;5070144;28;20032;-68
2021/03/19 05:09:55;;;;;;;;;;;1.70;61.80;;;;;;5070662;28;20032;-67
2021/03/19 05:12:21;;;;;;;18.10;7.50;;;1.70;61.50;;;;;;5070215;28;19908;-67
2021/03/19 05:14:46;;;;;;;;;;;1.70;60.90;;;;;;5070585;28;20064;-67
2021/03/19 05:17:12;;;;;;;14.18;6.05;;;1.60;61.00;;;;;;5069879;28;20433;-67
2021/03/19 05:19:38;;;;;;;;;;;1.60;60.80;;;;;;5070308;28;20039;-67
2021/03/19 05:22:04;;;;;;;19.60;9.50;;;1.70;61.00;;;;;;5068633;28;19912;-67
2021/03/19 05:24:30;;;;;;;20.98;11.23;;;1.70;61.30;;;;;;5069844;28;20032;-66
2021/03/19 05:26:56;;;;;;;;;;;1.70;61.90;;;;;;5070208;28;20025;-67
2021/03/19 05:29:21;;;;;;;22.80;11.50;;;1.70;63.90;;;;;;5069604;28;20380;-67
2021/03/19 05:31:47;;;;;;;;;;;1.60;64.20;;;;;;5069900;28;20566;-68
2021/03/19 05:34:13;;;;;;;33.45;13.45;;;1.70;63.80;;;;;;5067813;28;20429;-66
2021/03/19 05:36:39;;;;;;;;;;;1.80;63.30;;;;;;5068966;28;20029;-67
2021/03/19 05:39:06;;;;;;;21.13;8.68;;;1.80;63.20;;;;;;5069234;28;19905;-66
2021/03/19 05:41:35;;;;;;;25.63;10.52;;;1.90;63.40;;;;;;5066964;28;20060;-65
2021/03/19 05:44:05;;;;;;;22.45;10.25;;;1.90;63.40;;;;;;5067893;28;20401;-66
2021/03/19 05:46:35;;;;;;;28.73;13.07;;;2.00;63.30;;;;;;5067823;28;20500;-66
2021/03/19 05:49:10;;;;;;;33.70;12.35;;;2.10;63.40;;;;;;5067448;28;20032;-67
2021/03/19 05:51:47;;;;;;;25.00;9.37;;;2.10;63.50;;;;;;5067661;28;20524;-66
2021/03/19 05:54:27;;;;;;;14.02;7.55;;;2.20;63.60;;;;;;5065199;28;20290;-66
2021/03/19 05:57:08;;;;;;;10.90;6.13;;;2.20;63.70;;;;;;5067437;28;20037;-66
2021/03/19 05:59:52;;;;;;;15.90;6.88;;;2.30;63.80;;;;;;5067400;28;20068;-65
2021/03/19 06:02:38;;;;;;;20.95;9.32;;;2.30;64.00;;;;;;5067194;28;20065;-66
2021/03/19 06:05:22;;;;;;;19.70;8.68;;;2.40;64.00;;;;;;5066719;28;20040;-67
2021/03/19 06:07:51;;;;;;;13.73;7.72;;;2.50;64.20;;;;;;5068933;28;20024;-67
2021/03/19 06:10:28;;;;;;;12.30;6.30;;;2.60;64.40;;;;;;5068085;28;20070;-67
2021/03/19 06:13:09;;;;;;;13.35;6.15;;;2.70;64.40;;;;;;5068265;28;20024;-66
2021/03/19 06:15:44;;;;;;;10.23;5.55;;;2.80;64.50;;;;;;5067545;28;20021;-67
2021/03/19 06:18:27;;;;;;;9.57;5.65;;;2.90;64.30;;;;;;5068853;28;20058;-67
2021/03/19 06:20:56;;;;;;;13.35;6.38;;;3.00;64.20;;;;;;5068790;28;20035;-67
2021/03/19 06:23:23;;;;;;;13.15;7.88;;;3.20;64.00;;;;;;5068547;28;20036;-68
2021/03/19 06:26:02;;;;;;;10.38;5.50;;;3.20;63.80;;;;;;5068420;28;20089;-67
2021/03/19 06:28:31;;;;;;;13.52;7.07;;;3.30;64.00;;;;;;5068398;28;20032;-67
2021/03/19 06:31:22;;;;;;;9.80;5.78;;;3.30;63.60;;;;;;5068322;28;20021;-68
2021/03/19 06:34:25;;;;;;;12.55;6.07;;;3.40;63.50;;;;;;5066980;28;20028;-67
2021/03/19 06:36:50;;;;;;;14.20;8.18;;;3.40;63.60;;;;;;5068425;28;20027;-68
2021/03/19 06:39:20;;;;;;;;;;;3.40;62.60;;;;;;5078537;28;20544;-68
2021/03/19 06:42:22;;;;;;;11.27;6.47;;;3.40;62.90;;;;;;5072545;28;19920;-69
2021/03/19 06:45:19;;;;;;;15.40;6.35;;;3.50;63.10;;;;;;5057050;28;20124;-68
2021/03/19 06:47:57;;;;;;;;;;;3.70;63.50;;;;;;5052991;28;20032;-68
2021/03/19 06:50:23;;;;;;;;;;;3.90;63.60;;;;;;5064659;28;20074;-69
2021/03/19 06:53:15;;;;;;;10.45;5.70;;;4.10;63.40;;;;;;5066899;28;20034;-68
2021/03/19 06:55:52;;;;;;;11.13;5.30;;;4.40;62.80;;;;;;5068136;28;20610;-68
2021/03/19 06:58:32;;;;;;;9.55;5.88;;;4.60;62.30;;;;;;5068130;28;20020;-68
2021/03/19 07:00:58;;;;;;;9.88;5.80;;;4.80;61.10;;;;;;5068068;28;20488;-68
2021/03/19 07:03:35;;;;;;;;;;;5.20;61.10;;;;;;5068582;28;20111;-68
2021/03/19 07:06:32;;;;;;;9.93;5.57;;;5.50;58.00;;;;;;5066922;28;19912;-69
2021/03/19 07:09:26;;;;;;;9.13;4.65;;;5.80;57.20;;;;;;5068080;28;20670;-68
2021/03/19 07:11:59;;;;;;;8.93;4.35;;;6.00;53.20;;;;;;5066812;28;20028;-68
2021/03/19 07:15:00;;;;;;;8.93;4.88;;;6.40;49.60;;;;;;5068111;28;20393;-67
2021/03/19 07:17:44;;;;;;;9.45;4.72;;;6.70;45.50;;;;;;5035607;28;20067;-68
2021/03/19 07:20:34;;;;;;;19.00;4.55;;;7.00;43.00;;;;;;5068156;28;20024;-69
2021/03/19 07:23:22;;;;;;;9.63;4.55;;;7.20;42.80;;;;;;5067964;28;20040;-68
2021/03/19 07:26:18;;;;;;;8.02;4.60;;;7.10;42.40;;;;;;5067796;28;20082;-68
2021/03/19 07:29:11;;;;;;;8.32;4.43;;;7.60;42.10;;;;;;5068039;28;20063;-68
2021/03/19 07:31:40;;;;;;;10.15;4.38;;;8.60;40.20;;;;;;5066713;28;20512;-68
2021/03/19 07:34:24;;;;;;;6.72;3.63;;;10.10;38.20;;;;;;5068009;28;20485;-66
2021/03/19 07:37:24;;;;;;;6.90;4.07;;;11.90;35.30;;;;;;5066446;28;20028;-67
2021/03/19 07:40:15;;;;;;;8.77;5.60;;;12.80;34.00;;;;;;5067640;28;20028;-66
2021/03/19 07:43:20;;;;;;;7.93;4.95;;;12.60;38.10;;;;;;5067769;28;20037;-65
2021/03/19 07:46:06;;;;;;;8.80;4.40;;;11.60;38.90;;;;;;5026237;28;20043;-67
2021/03/19 07:48:44;;;;;;;6.57;4.82;;;10.80;37.20;;;;;;5067785;28;20050;-66
2021/03/19 07:51:23;;;;;;;8.25;5.43;;;9.90;37.70;;;;;;5066319;28;20112;-67
2021/03/19 07:54:15;;;;;;;14.55;5.57;;;9.10;38.60;;;;;;5067686;28;20075;-65
2021/03/19 07:57:04;;;;;;;8.52;5.40;;;8.40;40.70;;;;;;5070670;28;20028;-66
2021/03/19 07:59:48;;;;;;;9.75;5.18;;;7.90;42.40;;;;;;5070245;28;20025;-66
2021/03/19 08:02:27;;;;;;;10.10;4.53;;;7.50;43.00;;;;;;5069986;28;20098;-66
2021/03/19 08:05:05;;;;;;;11.00;4.60;;;7.20;47.70;;;;;;5071311;28;20037;-66
2021/03/19 08:07:49;;;;;;;11.80;5.57;;;6.80;52.20;;;;;;5071319;28;20115;-65
2021/03/19 08:10:17;;;;;;;6.90;5.07;;;6.30;56.70;;;;;;5071251;28;20454;-65
2021/03/19 08:12:49;;;;;;;8.65;4.43;;;5.60;61.40;;;;;;5070070;28;20123;-65
2021/03/19 08:15:35;;;;;;;10.77;5.80;;;5.20;65.00;;;;;;5071034;28;20028;-65
2021/03/19 08:18:10;;;;;;;10.32;6.13;;;4.70;68.70;;;;;;5029739;28;20078;-68
2021/03/19 08:20:55;;;;;;;10.38;6.55;;;4.20;71.10;;;;;;5071089;28;20031;-68
2021/03/19 08:23:32;;;;;;;12.93;7.82;;;4.00;72.50;;;;;;5070853;28;20047;-68
2021/03/19 08:25:57;;;;;;;12.93;7.53;;;4.00;73.70;;;;;;5070914;28;20033;-68
2021/03/19 08:28:38;;;;;;;;;;;4.20;74.70;;;;;;5071422;28;20082;-68
2021/03/19 08:31:42;;;;;;;10.40;6.10;;;4.30;74.40;;;;;;5070746;28;19908;-67
2021/03/19 08:34:31;;;;;;;12.10;7.30;;;4.50;74.70;;;;;;5070329;28;20068;-67
2021/03/19 08:36:56;;;;;;;10.95;5.80;;;4.80;74.60;;;;;;5070886;28;20512;-66
2021/03/19 08:39:32;;;;;;;;;;;5.30;73.10;;;;;;5070929;28;20029;-67
2021/03/19 08:42:17;;;;;;;9.02;5.93;;;5.90;70.50;;;;;;5070474;28;19935;-68
2021/03/19 08:44:45;;;;;;;8.23;5.70;;;6.60;68.00;;;;;;5070609;28;20020;-67
2021/03/19 08:47:33;;;;;;;10.20;5.68;;;7.20;65.00;;;;;;5069003;28;20036;-67
2021/03/19 08:50:09;;;;;;;6.45;4.55;;;7.40;62.80;;;;;;5070465;28;20050;-67
2021/03/19 08:52:40;;;;;;;;;;;7.40;62.30;;;;;;5070853;28;20036;-67
2021/03/19 08:55:15;;;;;;;9.55;6.35;;;7.40;62.70;;;;;;5070252;28;19963;-66
2021/03/19 08:57:45;;;;;;;7.97;5.20;;;7.40;63.00;;;;;;5070427;28;20032;-68
2021/03/19 09:00:40;;;;;;;9.05;6.35;;;7.30;61.60;;;;;;5070573;28;20066;-67
2021/03/19 09:03:31;;;;;;;11.07;7.90;;;7.10;61.60;;;;;;5068548;28;20123;-69
2021/03/19 09:06:13;;;;;;;8.32;5.57;;;7.10;62.00;;;;;;5070159;28;20029;-68
2021/03/19 09:08:51;;;;;;;10.13;5.53;;;7.10;60.70;;;;;;5069665;28;20485;-68
2021/03/19 09:11:18;;;;;;;12.05;7.38;;;7.50;59.90;;;;;;5068684;28;20069;-68
2021/03/19 09:14:21;;;;;;;13.27;7.68;;;8.80;58.40;;;;;;5070131;28;20029;-68
2021/03/19 09:16:55;;;;;;;13.63;7.20;;;9.90;51.10;;;;;;5028184;28;20123;-68
2021/03/19 09:19:41;;;;;;;13.38;8.52;;;10.20;47.30;;;;;;5069830;28;20103;-69
2021/03/19 09:22:22;;;;;;;16.60;8.77;;;10.60;47.20;;;;;;5069852;28;20029;-68
2021/03/19 09:25:15;;;;;;;12.63;7.15;;;11.20;43.80;;;;;;5069891;28;20293;-68
2021/03/19 09:27:59;;;;;;;13.20;5.38;;;11.40;42.60;;;;;;5069687;28;20028;-68
2021/03/19 09:30:39;;;;;;;11.18;6.30;;;11.20;40.40;;;;;;5069694;28;20027;-69
2021/03/19 09:33:11;;;;;;;12.85;7.10;;;11.10;39.40;;;;;;5069413;28;20615;-69
2021/03/19 09:35:39;;;;;;;8.98;6.65;;;11.10;40.90;;;;;;5069649;28;20103;-68
2021/03/19 09:38:28;;;;;;;11.95;5.18;;;11.40;44.00;;;;;;5069502;28;20025;-67
2021/03/19 09:40:56;;;;;;;8.45;4.82;;;12.50;38.60;;;;;;5059432;28;20412;-66
2021/03/19 09:43:38;;;;;;;8.88;4.45;;;12.60;36.10;;;;;;5069229;28;20032;-66
2021/03/19 09:46:27;;;;;;;13.27;5.45;;;12.80;35.70;;;;;;5069238;28;20020;-67
2021/03/19 09:49:21;;;;;;;9.57;5.22;;;13.30;35.30;;;;;;5069466;28;20024;-67
2021/03/19 09:51:47;;;;;;;10.00;4.88;;;13.70;35.70;;;;;;5069246;28;20025;-65
2021/03/19 09:54:28;;;;;;;9.07;5.13;;;14.10;35.80;;;;;;5069467;28;20059;-66
2021/03/19 09:57:00;;;;;;;6.80;4.30;;;13.90;35.70;;;;;;5067827;28;20089;-67
2021/03/19 09:59:29;;;;;;;7.88;4.55;;;13.30;36.00;;;;;;5067751;28;20063;-65
2021/03/19 10:01:56;;;;;;;7.97;5.03;;;12.70;36.10;;;;;;5068972;28;20079;-66
2021/03/19 10:04:29;;;;;;;6.97;4.65;;;12.30;37.30;;;;;;5067602;28;20021;-66
2021/03/19 10:06:56;;;;;;;8.60;4.93;;;11.80;36.70;;;;;;5067613;28;20515;-67
2021/03/19 10:09:29;;;;;;;6.90;4.43;;;11.00;35.90;;;;;;5068690;28;20044;-66
2021/03/19 10:12:16;;;;;;;11.00;4.93;;;10.60;36.30;;;;;;5068435;28;20040;-67
2021/03/19 10:14:47;;;;;;;7.97;5.10;;;10.00;38.60;;;;;;5068528;28;20028;-66
2021/03/19 10:17:25;;;;;;;13.00;5.88;;;9.60;39.70;;;;;;5068349;28;20078;-67
2021/03/19 10:20:02;;;;;;;11.45;6.20;;;9.70;39.60;;;;;;5067707;28;20039;-67
2021/03/19 10:22:39;;;;;;;9.15;5.20;;;10.10;39.20;;;;;;5068433;28;20350;-67
2021/03/19 10:25:19;;;;;;;9.52;4.70;;;10.70;38.60;;;;;;5068626;28;20032;-66
2021/03/19 10:27:48;;;;;;;8.40;4.95;;;10.70;38.20;;;;;;5068562;28;20028;-67
2021/03/19 10:30:25;;;;;;;11.38;4.50;;;10.30;38.90;;;;;;5068575;28;20108;-67
2021/03/19 10:32:53;;;;;;;7.43;4.50;;;10.00;39.10;;;;;;5067618;28;20086;-67
2021/03/19 10:35:29;;;;;;;8.40;4.40;;;9.90;38.90;;;;;;5068459;28;20059;-67
2021/03/19 10:38:03;;;;;;;12.02;5.40;;;9.90;40.00;;;;;;5068623;28;20031;-67
2021/03/19 10:40:37;;;;;;;7.00;4.28;;;9.70;40.00;;;;;;5068348;28;20504;-67
2021/03/19 10:43:20;;;;;;;8.85;5.28;;;9.50;40.60;;;;;;5068292;28;20451;-67
2021/03/19 10:45:57;;;;;;;9.65;5.45;;;9.30;41.30;;;;;;5067732;28;20489;-67
2021/03/19 10:48:49;;;;;;;15.13;6.00;;;9.00;42.90;;;;;;5067152;28;20068;-67
2021/03/19 10:51:39;;;;;;;9.60;6.13;;;8.90;44.40;;;;;;5060473;28;20040;-67
2021/03/19 10:54:17;;;;;;;11.82;5.30;;;8.70;45.70;;;;;;5067924;28;20403;-66
2021/03/19 10:56:52;;;;;;;9.20;5.55;;;8.60;47.00;;;;;;5073558;28;20452;-67
2021/03/19 10:59:26;;;;;;;10.13;5.67;;;8.40;45.20;;;;;;5105598;28;20024;-67
2021/03/19 11:01:52;;;;;;;9.40;5.43;;;8.40;46.10;;;;;;5104328;28;20349;-67
2021/03/19 11:04:49;;;;;;;11.30;6.05;;;8.30;43.20;;;;;;5085455;28;20563;-67
2021/03/19 11:07:30;;;;;;;8.02;5.93;;;8.10;44.20;;;;;;5074382;28;20092;-67
2021/03/19 11:10:01;;;;;;;11.98;6.30;;;7.80;44.40;;;;;;5085394;28;20032;-66
2021/03/19 11:12:42;;;;;;;9.05;5.70;;;7.50;44.70;;;;;;5085483;28;20057;-67
2021/03/19 11:15:36;;;;;;;10.15;6.55;;;7.40;47.40;;;;;;5085640;28;20027;-66
2021/03/19 11:18:16;;;;;;;11.93;7.63;;;7.60;48.40;;;;;;5085261;28;20520;-67
2021/03/19 11:20:45;;;;;;;11.75;6.47;;;7.80;48.00;;;;;;5085593;28;20051;-67
2021/03/19 11:23:36;;;;;;;15.13;6.75;;;8.00;47.20;;;;;;5085510;28;20040;-67
2021/03/19 11:26:28;;;;;;;10.75;5.95;;;7.90;47.10;;;;;;5093047;28;20096;-67
2021/03/19 11:29:13;;;;;;;13.00;7.82;;;8.10;47.20;;;;;;5104589;28;20497;-67
2021/03/19 11:31:59;;;;;;;12.25;6.43;;;8.30;46.20;;;;;;5109132;28;20031;-68
2021/03/19 11:34:43;;;;;;;11.52;6.43;;;8.30;45.70;;;;;;5109698;28;20448;-68
2021/03/19 11:37:11;;;;;;;19.55;9.38;;;8.40;47.10;;;;;;5098378;28;20028;-66
2021/03/19 11:39:42;;;;;;;15.80;8.73;;;8.50;47.00;;;;;;5089041;28;20372;-67
2021/03/19 11:42:14;;;;;;;13.90;8.90;;;8.70;46.30;;;;;;5089090;28;20032;-66
2021/03/19 11:44:41;;;;;;;12.65;5.93;;;8.80;46.20;;;;;;5088884;28;20032;-67
2021/03/19 11:47:23;;;;;;;7.63;5.10;;;9.00;44.10;;;;;;5088740;28;20020;-67
2021/03/19 11:49:52;;;;;;;7.75;5.05;;;9.10;42.30;;;;;;5090896;28;20028;-68
2021/03/19 11:52:20;;;;;;;13.23;7.10;;;9.30;41.60;;;;;;5104382;28;20032;-67
2021/03/19 11:54:46;;;;;;;14.73;7.22;;;9.50;46.80;;;;;;5109291;28;20110;-66
2021/03/19 11:57:12;;;;;;;12.20;7.70;;;9.60;49.20;;;;;;5109059;28;20038;-66
2021/03/19 11:59:37;;;;;;;;;;;9.50;49.20;;;;;;5110157;28;20019;-67
2021/03/19 12:02:36;;;;;;;11.10;6.72;;;9.30;48.90;;;;;;5109505;28;20692;-67
2021/03/19 12:05:02;;;;;;;11.57;6.57;;;9.30;48.80;;;;;;5093207;28;20035;-67
2021/03/19 12:07:28;;;;;;;10.70;6.50;;;9.00;48.60;;;;;;5088457;28;20423;-68
2021/03/19 12:09:53;;;;;;;;;;;8.80;49.20;;;;;;5088808;28;20024;-66
2021/03/19 12:12:24;;;;;;;14.23;6.78;;;8.70;49.20;;;;;;5087794;28;19959;-67
2021/03/19 12:14:50;;;;;;;11.10;7.50;;;8.50;51.10;;;;;;5086677;28;20193;-65
2021/03/19 12:17:17;;;;;;;13.02;8.30;;;8.30;51.30;;;;;;5086828;28;20070;-66
2021/03/19 12:19:43;;;;;;;9.65;7.10;;;8.10;51.80;;;;;;5093254;28;20051;-66
2021/03/19 12:22:09;;;;;;;;;;;8.00;52.10;;;;;;5108931;28;20131;-66
2021/03/19 12:24:35;;;;;;;9.95;6.88;;;8.00;51.50;;;;;;5108249;28;19988;-67
2021/03/19 12:27:03;;;;;;;10.05;6.75;;;7.90;51.60;;;;;;5107757;28;20028;-66
2021/03/19 12:29:28;;;;;;;11.55;7.68;;;7.90;53.10;;;;;;5108039;28;20070;-66
2021/03/19 12:31:55;;;;;;;;;;;7.90;53.90;;;;;;5108164;28;20063;-67
2021/03/19 12:34:41;;;;;;;10.23;6.75;;;7.80;54.60;;;;;;5105525;28;19908;-67
2021/03/19 12:37:06;;;;;;;16.17;9.35;;;8.00;52.80;;;;;;5086906;28;20508;-68
2021/03/19 12:39:32;;;;;;;;;;;8.20;52.60;;;;;;5088553;28;20035;-67
2021/03/19 12:41:57;;;;;;;11.02;6.88;;;8.50;51.10;;;;;;5086830;28;19920;-65
2021/03/19 12:44:23;;;;;;;14.45;9.48;;;8.80;49.80;;;;;;5088180;28;20036;-67
2021/03/19 12:46:49;;;;;;;;;;;9.00;45.80;;;;;;5078721;28;20542;-67
2021/03/19 12:49:15;;;;;;;9.05;6.53;;;9.20;43.80;;;;;;5090506;28;19908;-67
2021/03/19 12:51:41;;;;;;;;;;;9.30;42.60;;;;;;5100751;28;20035;-67
2021/03/19 12:54:07;;;;;;;9.20;5.60;;;9.50;43.30;;;;;;5088106;28;20458;-67
2021/03/19 12:56:32;;;;;;;;;;;9.70;42.90;;;;;;5088226;28;20127;-66
2021/03/19 12:58:59;;;;;;;9.63;5.43;;;9.60;41.40;;;;;;5085661;28;20003;-67
2021/03/19 13:01:24;;;;;;;13.23;6.40;;;9.40;39.50;;;;;;5086325;28;20028;-67
2021/03/19 13:03:50;;;;;;;;;;;9.10;40.60;;;;;;5088487;28;20047;-65
2021/03/19 13:06:18;;;;;;;6.60;4.57;;;9.00;41.50;;;;;;5085962;28;20009;-67
2021/03/19 13:08:44;;;;;;;8.73;5.57;;;9.00;41.50;;;;;;5087754;28;20143;-66
2021/03/19 13:11:11;;;;;;;;;;;9.00;42.00;;;;;;5086942;28;20127;-67
2021/03/19 13:13:37;;;;;;;14.05;9.35;;;9.20;42.80;;;;;;5087681;28;19908;-67
2021/03/19 13:16:02;;;;;;;;;;;9.30;43.10;;;;;;5084168;28;20088;-67
2021/03/19 13:18:28;;;;;;;10.82;6.13;;;9.20;42.30;;;;;;5068427;28;19912;-67
2021/03/19 13:20:54;;;;;;;10.43;6.57;;;9.20;42.70;;;;;;5067712;28;20025;-67
2021/03/19 13:23:19;;;;;;;;;;;9.30;42.10;;;;;;5087407;28;20046;-67
2021/03/19 13:25:45;;;;;;;9.23;5.85;;;9.40;40.10;;;;;;5084506;28;19912;-67
2021/03/19 13:28:16;;;;;;;;;;;9.20;40.70;;;;;;5094618;28;20052;-66
2021/03/19 13:30:42;;;;;;;11.02;5.57;;;9.00;41.60;;;;;;5079199;28;19957;-67
2021/03/19 13:33:08;;;;;;;9.75;6.68;;;9.00;42.50;;;;;;5084879;28;20111;-67
2021/03/19 13:35:37;;;;;;;10.15;5.63;;;9.10;42.40;;;;;;5106466;28;20019;-67
2021/03/19 13:38:04;;;;;;;13.20;8.82;;;9.20;42.20;;;;;;5094973;28;20036;-66
2021/03/19 13:40:32;;;;;;;11.73;6.40;;;9.20;41.00;;;;;;5089520;28;20073;-67
2021/03/19 13:42:58;;;;;;;11.45;5.95;;;8.90;41.30;;;;;;5089689;28;20051;-67